createdAt,value
2019-02-03T00:02:12.742Z,-86
2019-02-03T00:04:44.866Z,-86
2019-02-03T00:07:16.804Z,-86
2019-02-03T00:09:49.562Z,-85
2019-02-03T00:12:21.441Z,-86
2019-02-03T00:14:53.298Z,-85
2019-02-03T00:17:25.195Z,-85
2019-02-03T00:19:57.030Z,-86
2019-02-03T00:22:28.932Z,-86
2019-02-03T00:25:01.154Z,-85
2019-02-03T00:27:33.501Z,-86
2019-02-03T00:30:06.949Z,-86
2019-02-03T00:32:38.816Z,-86
2019-02-03T00:35:10.679Z,-85
2019-02-03T00:37:42.596Z,-85
2019-02-03T00:40:14.844Z,-83
2019-02-03T00:42:46.742Z,-84
2019-02-03T00:45:18.454Z,-83
2019-02-03T00:47:51.433Z,-83
2019-02-03T00:50:23.444Z,-86
2019-02-03T00:52:58.026Z,-85
2019-02-03T00:55:29.972Z,-85
2019-02-03T00:58:01.988Z,-83
2019-02-03T01:00:33.859Z,-84
2019-02-03T01:03:05.925Z,-86
2019-02-03T01:05:37.828Z,-85
2019-02-03T01:08:10.522Z,-85
2019-02-03T01:10:42.402Z,-86
2019-02-03T01:13:14.274Z,-85
2019-02-03T01:15:46.156Z,-85
2019-02-03T01:18:18.016Z,-85
2019-02-03T01:20:50.198Z,-86
2019-02-03T01:23:22.051Z,-86
2019-02-03T01:25:53.928Z,-87
2019-02-03T01:28:25.866Z,-86
2019-02-03T01:30:57.770Z,-86
2019-02-03T01:33:29.722Z,-86
2019-02-03T01:36:01.751Z,-87
2019-02-03T01:38:33.627Z,-83
2019-02-03T01:41:05.520Z,-85
2019-02-03T01:43:37.764Z,-86
2019-02-03T01:46:09.686Z,-87
2019-02-03T01:48:41.542Z,-86
2019-02-03T01:51:13.421Z,-85
2019-02-03T01:53:45.272Z,-85
2019-02-03T01:56:17.169Z,-86
2019-02-03T01:58:49.034Z,-85
2019-02-03T02:01:20.912Z,-84
2019-02-03T02:03:52.796Z,-85
2019-02-03T02:06:24.933Z,-86
2019-02-03T02:08:56.782Z,-86
2019-02-03T02:11:28.672Z,-85
2019-02-03T02:14:00.625Z,-84
2019-02-03T02:16:32.499Z,-85
2019-02-03T02:19:04.554Z,-85
2019-02-03T02:21:38.014Z,-85
2019-02-03T02:24:11.183Z,-85
2019-02-03T02:26:43.204Z,-85
2019-02-03T02:29:15.379Z,-84
2019-02-03T02:31:47.400Z,-85
2019-02-03T02:34:19.345Z,-85
2019-02-03T02:36:51.695Z,-85
2019-02-03T02:39:23.729Z,-85
2019-02-03T02:41:55.685Z,-85
2019-02-03T02:44:27.605Z,-85
2019-02-03T02:46:59.492Z,-85
2019-02-03T02:49:31.376Z,-85
2019-02-03T02:52:03.317Z,-85
2019-02-03T02:54:35.367Z,-84
2019-02-03T02:57:08.173Z,-85
2019-02-03T02:59:40.058Z,-84
2019-02-03T03:02:11.895Z,-85
2019-02-03T03:04:43.884Z,-84
2019-02-03T03:07:15.710Z,-85
2019-02-03T03:09:47.898Z,-84
2019-02-03T03:12:20.330Z,-84
2019-02-03T03:14:52.553Z,-85
2019-02-03T03:17:24.861Z,-84
2019-02-03T03:19:57.691Z,-84
2019-02-03T03:22:29.544Z,-84
2019-02-03T03:25:01.453Z,-84
2019-02-03T03:27:33.678Z,-85
2019-02-03T03:30:10.685Z,-85
2019-02-03T03:32:42.567Z,-85
2019-02-03T03:35:14.491Z,-85
2019-02-03T03:37:46.623Z,-84
2019-02-03T03:40:21.980Z,-86
2019-02-03T03:42:53.956Z,-84
2019-02-03T03:45:26.165Z,-85
2019-02-03T03:47:58.043Z,-85
2019-02-03T03:50:29.915Z,-85
2019-02-03T03:53:01.794Z,-85
2019-02-03T03:55:33.713Z,-84
2019-02-03T03:58:05.744Z,-85
2019-02-03T04:00:37.917Z,-85
2019-02-03T04:03:09.806Z,-85
2019-02-03T04:05:41.645Z,-85
2019-02-03T04:08:13.515Z,-85
2019-02-03T04:10:45.359Z,-85
2019-02-03T04:13:17.224Z,-84
2019-02-03T04:15:49.078Z,-85
2019-02-03T04:18:20.953Z,-85
2019-02-03T04:20:52.794Z,-85
2019-02-03T04:23:25.049Z,-85
2019-02-03T04:25:56.930Z,-85
2019-02-03T04:28:28.809Z,-85
2019-02-03T04:31:00.692Z,-85
2019-02-03T04:33:32.570Z,-85
2019-02-03T04:36:04.412Z,-85
2019-02-03T04:38:36.301Z,-85
2019-02-03T04:41:08.140Z,-84
2019-02-03T04:43:40.003Z,-85
2019-02-03T04:46:11.857Z,-85
2019-02-03T04:48:43.730Z,-84
2019-02-03T04:51:15.563Z,-85
2019-02-03T04:53:47.487Z,-85
2019-02-03T04:56:19.338Z,-84
2019-02-03T04:58:51.484Z,-85
2019-02-03T05:01:23.446Z,-85
2019-02-03T05:03:55.329Z,-84
2019-02-03T05:06:27.234Z,-84
2019-02-03T05:09:10.643Z,-85
2019-02-03T05:11:32.755Z,-84
2019-02-03T05:14:05.225Z,-84
2019-02-03T05:16:37.069Z,-84
2019-02-03T05:19:09.042Z,-84
2019-02-03T05:21:41.154Z,-84
2019-02-03T05:24:13.030Z,-85
2019-02-03T05:26:44.889Z,-85
2019-02-03T05:29:16.788Z,-84
2019-02-03T05:31:48.631Z,-85
2019-02-03T05:34:20.517Z,-84
2019-02-03T05:36:52.387Z,-84
2019-02-03T05:39:25.541Z,-84
2019-02-03T05:41:57.683Z,-84
2019-02-03T05:44:29.911Z,-86
2019-02-03T05:47:01.785Z,-84
2019-02-03T05:49:33.644Z,-84
2019-02-03T05:52:05.502Z,-84
2019-02-03T05:54:37.339Z,-84
2019-02-03T05:57:09.331Z,-84
2019-02-03T05:59:41.188Z,-84
2019-02-03T06:02:13.094Z,-84
2019-02-03T06:04:44.926Z,-84
2019-02-03T06:07:16.830Z,-84
2019-02-03T06:09:48.664Z,-83
2019-02-03T06:12:20.656Z,-84
2019-02-03T06:14:52.505Z,-85
2019-02-03T06:17:24.484Z,-85
2019-02-03T06:19:56.545Z,-86
2019-02-03T06:22:28.455Z,-85
2019-02-03T06:25:00.393Z,-86
2019-02-03T06:27:32.406Z,-87
2019-02-03T06:30:04.867Z,-86
2019-02-03T06:32:36.856Z,-85
2019-02-03T06:35:08.728Z,-86
2019-02-03T06:37:40.692Z,-86
2019-02-03T06:40:12.698Z,-86
2019-02-03T06:42:44.988Z,-86
2019-02-03T06:45:25.853Z,-84
2019-02-03T06:47:59.432Z,-84
2019-02-03T06:50:31.444Z,-84
2019-02-03T06:53:03.308Z,-84
2019-02-03T06:55:35.156Z,-83
2019-02-03T06:58:07.049Z,-84
2019-02-03T07:00:38.889Z,-84
2019-02-03T07:03:10.774Z,-84
2019-02-03T07:05:42.633Z,-87
2019-02-03T07:08:14.526Z,-84
2019-02-03T07:10:46.362Z,-84
2019-02-03T07:13:18.233Z,-86
2019-02-03T07:15:50.296Z,-88
2019-02-03T07:18:22.450Z,-86
2019-02-03T07:20:54.509Z,-84
2019-02-03T07:23:26.593Z,-85
2019-02-03T07:25:58.513Z,-86
2019-02-03T07:28:30.635Z,-84
2019-02-03T07:31:02.656Z,-84
2019-02-03T07:33:34.779Z,-86
2019-02-03T07:36:06.930Z,-85
2019-02-03T07:38:39.114Z,-85
2019-02-03T07:41:11.208Z,-87
2019-02-03T07:43:43.194Z,-84
2019-02-03T07:46:15.102Z,-83
2019-02-03T07:48:47.081Z,-83
2019-02-03T07:51:18.929Z,-85
2019-02-03T07:53:50.827Z,-84
2019-02-03T07:56:22.700Z,-86
2019-02-03T07:58:54.596Z,-86
2019-02-03T08:01:26.816Z,-85
2019-02-03T08:03:58.934Z,-85
2019-02-03T08:06:30.791Z,-86
2019-02-03T08:09:02.752Z,-83
2019-02-03T08:11:34.629Z,-84
2019-02-03T08:14:07.149Z,-86
2019-02-03T08:16:39.068Z,-84
2019-02-03T08:19:11.022Z,-84
2019-02-03T08:21:42.914Z,-83
2019-02-03T08:24:14.921Z,-85
2019-02-03T08:26:46.849Z,-83
2019-02-03T08:29:18.904Z,-84
2019-02-03T08:31:50.903Z,-85
2019-02-03T08:34:23.195Z,-85
2019-02-03T08:36:55.442Z,-85
2019-02-03T08:39:27.505Z,-86
2019-02-03T08:41:59.446Z,-86
2019-02-03T08:44:31.346Z,-85
2019-02-03T08:47:03.238Z,-85
2019-02-03T08:49:35.597Z,-86
2019-02-03T08:52:07.772Z,-86
2019-02-03T08:54:56.737Z,-87
2019-02-03T08:57:13.458Z,-85
2019-02-03T08:59:45.410Z,-85
2019-02-03T09:02:17.266Z,-84
2019-02-03T09:04:49.233Z,-84
2019-02-03T09:07:21.141Z,-85
2019-02-03T09:09:53.119Z,-85
2019-02-03T09:12:25.343Z,-86
2019-02-03T09:14:57.637Z,-85
2019-02-03T09:17:29.479Z,-84
2019-02-03T09:20:01.361Z,-85
2019-02-03T09:22:33.229Z,-85
2019-02-03T09:25:05.412Z,-85
2019-02-03T09:27:37.258Z,-86
2019-02-03T09:30:13.163Z,-85
2019-02-03T09:32:45.063Z,-85
2019-02-03T09:35:18.028Z,-85
2019-02-03T09:37:51.716Z,-86
2019-02-03T09:40:29.699Z,-85
2019-02-03T09:43:01.540Z,-86
2019-02-03T09:45:34.500Z,-85
2019-02-03T09:48:06.863Z,-85
2019-02-03T09:50:38.738Z,-85
2019-02-03T09:53:10.592Z,-84
2019-02-03T09:55:42.460Z,-85
2019-02-03T09:58:14.514Z,-84
2019-02-03T10:00:46.437Z,-85
2019-02-03T10:03:18.288Z,-85
2019-02-03T10:05:50.180Z,-86
2019-02-03T10:08:22.082Z,-85
2019-02-03T10:10:54.011Z,-85
2019-02-03T10:13:25.872Z,-85
2019-02-03T10:15:57.768Z,-85
2019-02-03T10:18:29.615Z,-88
2019-02-03T10:21:02.015Z,-82
2019-02-03T10:23:33.886Z,-82
2019-02-03T10:26:06.190Z,-82
2019-02-03T10:28:38.170Z,-83
2019-02-03T10:31:10.072Z,-82
2019-02-03T10:33:41.948Z,-83
2019-02-03T10:36:13.930Z,-83
2019-02-03T10:38:45.954Z,-83
2019-02-03T10:41:24.140Z,-83
2019-02-03T10:43:51.849Z,-82
2019-02-03T10:46:23.739Z,-84
2019-02-03T10:48:55.653Z,-83
2019-02-03T10:51:27.783Z,-83
2019-02-03T10:53:59.635Z,-83
2019-02-03T10:56:32.545Z,-82
2019-02-03T10:59:05.227Z,-83
2019-02-03T11:01:37.402Z,-83
2019-02-03T11:04:09.822Z,-83
2019-02-03T11:06:41.948Z,-83
2019-02-03T11:09:14.422Z,-84
2019-02-03T11:11:46.364Z,-83
2019-02-03T11:14:18.243Z,-83
2019-02-03T11:16:50.218Z,-84
2019-02-03T11:19:22.086Z,-84
2019-02-03T11:21:54.457Z,-82
2019-02-03T11:24:26.385Z,-83
2019-02-03T11:26:59.224Z,-82
2019-02-03T11:29:31.135Z,-83
2019-02-03T11:32:03.017Z,-82
2019-02-03T11:34:34.856Z,-82
2019-02-03T11:37:06.784Z,-82
2019-02-03T11:39:38.724Z,-81
2019-02-03T11:42:10.704Z,-82
2019-02-03T11:44:42.543Z,-83
2019-02-03T11:47:14.424Z,-85
2019-02-03T11:49:46.280Z,-84
2019-02-03T11:52:18.173Z,-82
2019-02-03T11:54:50.098Z,-82
2019-02-03T11:57:21.993Z,-82
2019-02-03T11:59:53.839Z,-82
2019-02-03T12:02:25.827Z,-83
2019-02-03T12:04:57.668Z,-81
2019-02-03T12:07:29.564Z,-83
2019-02-03T12:10:01.410Z,-85
2019-02-03T12:12:33.286Z,-83
2019-02-03T12:15:05.723Z,-85
2019-02-03T12:17:37.670Z,-84
2019-02-03T12:20:11.007Z,-83
2019-02-03T12:22:42.997Z,-83
2019-02-03T12:25:19.373Z,-83
2019-02-03T12:27:51.228Z,-81
2019-02-03T12:30:30.036Z,-83
2019-02-03T12:33:02.216Z,-82
2019-02-03T12:35:34.175Z,-83
2019-02-03T12:38:06.733Z,-82
2019-02-03T12:40:39.083Z,-81
2019-02-03T12:43:10.951Z,-82
2019-02-03T12:45:43.344Z,-83
2019-02-03T12:48:15.189Z,-83
2019-02-03T12:50:47.182Z,-82
2019-02-03T12:53:19.728Z,-83
2019-02-03T12:55:51.973Z,-82
2019-02-03T12:58:23.816Z,-83
2019-02-03T13:00:56.515Z,-83
2019-02-03T13:03:28.362Z,-82
2019-02-03T13:06:00.235Z,-84
2019-02-03T13:08:32.086Z,-82
2019-02-03T13:11:03.969Z,-83
2019-02-03T13:13:35.821Z,-83
2019-02-03T13:16:07.898Z,-83
2019-02-03T13:18:39.798Z,-84
2019-02-03T13:21:11.685Z,-83
2019-02-03T13:23:45.202Z,-84
2019-02-03T13:26:17.216Z,-84
2019-02-03T13:28:49.082Z,-84
2019-02-03T13:31:21.060Z,-85
2019-02-03T13:33:53.045Z,-84
2019-02-03T13:36:25.296Z,-83
2019-02-03T13:38:57.249Z,-83
2019-02-03T13:41:29.164Z,-85
2019-02-03T13:44:04.566Z,-84
2019-02-03T13:46:36.462Z,-85
2019-02-03T13:49:08.636Z,-86
2019-02-03T13:51:40.599Z,-85
2019-02-03T13:54:12.450Z,-86
2019-02-03T13:56:44.348Z,-85
2019-02-03T13:59:16.221Z,-85
2019-02-03T14:01:50.582Z,-84
2019-02-03T14:04:22.331Z,-84
2019-02-03T14:06:54.505Z,-83
2019-02-03T14:09:26.659Z,-85
2019-02-03T14:11:58.711Z,-87
2019-02-03T14:14:30.616Z,-85
2019-02-03T14:17:02.503Z,-82
2019-02-03T14:19:34.399Z,-85
2019-02-03T14:22:06.877Z,-82
2019-02-03T14:24:38.875Z,-83
2019-02-03T14:27:10.745Z,-84
2019-02-03T14:29:43.152Z,-82
2019-02-03T14:32:15.014Z,-82
2019-02-03T14:34:46.909Z,-82
2019-02-03T14:37:18.773Z,-81
2019-02-03T14:39:50.714Z,-81
2019-02-03T14:42:23.650Z,-81
2019-02-03T14:44:56.375Z,-81
2019-02-03T14:47:28.253Z,-83
2019-02-03T14:50:00.236Z,-86
2019-02-03T14:52:32.093Z,-84
2019-02-03T14:55:04.152Z,-81
2019-02-03T14:57:36.043Z,-81
2019-02-03T15:00:25.562Z,-84
2019-02-03T15:02:57.712Z,-83
2019-02-03T15:05:29.959Z,-83
2019-02-03T15:08:01.861Z,-85
2019-02-03T15:10:33.857Z,-83
2019-02-03T15:13:13.729Z,-83
2019-02-03T15:15:40.055Z,-81
2019-02-03T15:18:11.914Z,-85
2019-02-03T15:20:43.796Z,-86
2019-02-03T15:23:15.634Z,-85
2019-02-03T15:25:47.530Z,-86
2019-02-03T15:28:19.538Z,-84
2019-02-03T15:30:51.427Z,-83
2019-02-03T15:33:23.276Z,-82
2019-02-03T15:35:55.215Z,-86
2019-02-03T15:38:27.069Z,-84
2019-02-03T15:40:58.990Z,-83
2019-02-03T15:43:30.888Z,-82
2019-02-03T15:46:02.835Z,-80
2019-02-03T15:48:34.701Z,-81
2019-02-03T15:51:06.729Z,-80
2019-02-03T15:53:38.568Z,-83
2019-02-03T15:56:10.441Z,-81
2019-02-03T15:58:42.303Z,-78
2019-02-03T16:01:14.199Z,-80
2019-02-03T16:03:46.029Z,-80
2019-02-03T16:06:17.911Z,-83
2019-02-03T16:08:49.768Z,-80
2019-02-03T16:11:22.538Z,-79
2019-02-03T16:13:54.555Z,-79
2019-02-03T16:16:26.694Z,-79
2019-02-03T16:18:58.741Z,-79
2019-02-03T16:21:31.062Z,-81
2019-02-03T16:24:02.966Z,-81
2019-02-03T16:26:34.837Z,-81
2019-02-03T16:29:06.971Z,-81
2019-02-03T16:31:38.830Z,-81
2019-02-03T16:34:10.995Z,-80
2019-02-03T16:36:42.931Z,-82
2019-02-03T16:39:14.765Z,-81
2019-02-03T16:41:46.769Z,-80
2019-02-03T16:44:18.605Z,-81
2019-02-03T16:46:50.487Z,-80
2019-02-03T16:49:22.391Z,-80
2019-02-03T16:51:54.725Z,-80
2019-02-03T16:54:26.555Z,-80
2019-02-03T16:56:58.430Z,-80
2019-02-03T16:59:30.268Z,-80
2019-02-03T17:02:02.431Z,-80
2019-02-03T17:04:34.286Z,-81
2019-02-03T17:07:06.570Z,-81
2019-02-03T17:09:38.523Z,-81
2019-02-03T17:12:10.350Z,-81
2019-02-03T17:14:42.203Z,-81
2019-02-03T17:17:14.054Z,-82
2019-02-03T17:19:45.907Z,-80
2019-02-03T17:22:17.776Z,-81
2019-02-03T17:24:49.839Z,-80
2019-02-03T17:27:21.692Z,-79
2019-02-03T17:29:53.611Z,-80
2019-02-03T17:32:25.489Z,-80
2019-02-03T17:34:57.368Z,-80
2019-02-03T17:37:29.401Z,-80
2019-02-03T17:40:01.602Z,-80
2019-02-03T17:42:33.475Z,-80
2019-02-03T17:45:07.473Z,-80
2019-02-03T17:47:39.336Z,-81
2019-02-03T17:50:14.581Z,-82
2019-02-03T17:52:46.441Z,-80
2019-02-03T17:55:20.013Z,-80
2019-02-03T17:57:51.962Z,-80
2019-02-03T18:00:34.457Z,-81
2019-02-03T18:03:06.471Z,-79
2019-02-03T18:05:38.345Z,-79
2019-02-03T18:08:10.609Z,-81
2019-02-03T18:10:42.492Z,-83
2019-02-03T18:13:14.337Z,-80
2019-02-03T18:15:46.229Z,-82
2019-02-03T18:18:18.047Z,-81
2019-02-03T18:20:50.109Z,-83
2019-02-03T18:23:21.957Z,-79
2019-02-03T18:25:53.893Z,-80
2019-02-03T18:28:25.736Z,-79
2019-02-03T18:30:57.777Z,-79
2019-02-03T18:33:29.899Z,-80
2019-02-03T18:36:01.899Z,-80
2019-02-03T18:38:33.750Z,-80
2019-02-03T18:41:05.721Z,-79
2019-02-03T18:43:37.559Z,-79
2019-02-03T18:46:09.539Z,-79
2019-02-03T18:48:41.391Z,-79
2019-02-03T18:51:13.256Z,-79
2019-02-03T18:53:45.105Z,-79
2019-02-03T18:56:17.015Z,-79
2019-02-03T18:58:48.980Z,-79
2019-02-03T19:01:20.855Z,-79
2019-02-03T19:03:52.694Z,-79
2019-02-03T19:06:24.567Z,-79
2019-02-03T19:08:56.783Z,-80
2019-02-03T19:11:28.662Z,-80
2019-02-03T19:14:00.524Z,-82
2019-02-03T19:16:32.405Z,-85
2019-02-03T19:19:04.554Z,-85
2019-02-03T19:21:36.483Z,-81
2019-02-03T19:24:08.335Z,-80
2019-02-03T19:26:40.240Z,-84
2019-02-03T19:29:12.175Z,-83
2019-02-03T19:31:44.465Z,-83
2019-02-03T19:34:16.345Z,-84
2019-02-03T19:36:48.591Z,-80
2019-02-03T19:39:20.399Z,-81
2019-02-03T19:41:52.311Z,-84
2019-02-03T19:44:25.084Z,-81
2019-02-03T19:46:57.255Z,-82
2019-02-03T19:49:29.129Z,-83
2019-02-03T19:52:01.064Z,-82
2019-02-03T19:54:32.914Z,-81
2019-02-03T19:57:04.788Z,-81
2019-02-03T19:59:46.583Z,-80
2019-02-03T20:02:10.180Z,-80
2019-02-03T20:04:42.133Z,-81
2019-02-03T20:07:14.152Z,-79
2019-02-03T20:09:46.128Z,-80
2019-02-03T20:12:17.982Z,-80
2019-02-03T20:14:49.925Z,-81
2019-02-03T20:17:21.844Z,-81
2019-02-03T20:19:54.089Z,-81
2019-02-03T20:22:25.990Z,-80
2019-02-03T20:24:57.992Z,-80
2019-02-03T20:27:30.053Z,-83
2019-02-03T20:30:02.807Z,-81
2019-02-03T20:32:34.961Z,-80
2019-02-03T20:35:09.040Z,-81
2019-02-03T20:37:40.891Z,-81
2019-02-03T20:40:19.469Z,-81
2019-02-03T20:42:51.728Z,-81
2019-02-03T20:45:24.153Z,-82
2019-02-03T20:47:56.125Z,-81
2019-02-03T20:50:28.179Z,-80
2019-02-03T20:53:00.636Z,-81
2019-02-03T20:55:32.478Z,-81
2019-02-03T20:58:04.380Z,-83
2019-02-03T21:00:36.773Z,-81
2019-02-03T21:03:08.790Z,-81
2019-02-03T21:05:40.676Z,-81
2019-02-03T21:08:12.717Z,-81
2019-02-03T21:10:44.735Z,-80
2019-02-03T21:13:17.811Z,-82
2019-02-03T21:15:49.954Z,-81
2019-02-03T21:18:21.902Z,-81
2019-02-03T21:20:53.811Z,-81
2019-02-03T21:23:25.695Z,-81
2019-02-03T21:25:57.686Z,-81
2019-02-03T21:28:30.794Z,-81
2019-02-03T21:31:02.703Z,-81
2019-02-03T21:33:34.617Z,-81
2019-02-03T21:36:06.731Z,-81
2019-02-03T21:38:39.065Z,-85
2019-02-03T21:41:10.951Z,-82
2019-02-03T21:43:46.103Z,-83
2019-02-03T21:46:18.337Z,-82
2019-02-03T21:48:52.023Z,-81
2019-02-03T21:51:24.057Z,-82
2019-02-03T21:53:56.202Z,-81
2019-02-03T21:56:28.463Z,-82
2019-02-03T21:59:00.342Z,-82
2019-02-03T22:01:32.181Z,-85
2019-02-03T22:04:04.226Z,-83
2019-02-03T22:06:37.743Z,-84
2019-02-03T22:09:10.408Z,-83
2019-02-03T22:11:43.269Z,-82
2019-02-03T22:14:15.339Z,-83
2019-02-03T22:16:47.183Z,-83
2019-02-03T22:19:21.194Z,-84
2019-02-03T22:21:53.053Z,-83
2019-02-03T22:24:25.026Z,-83
2019-02-03T22:26:56.878Z,-83
2019-02-03T22:29:28.841Z,-83
2019-02-03T22:32:00.702Z,-84
2019-02-03T22:34:32.557Z,-83
2019-02-03T22:37:04.581Z,-83
2019-02-03T22:39:45.621Z,-86
2019-02-03T22:42:18.384Z,-82
2019-02-03T22:44:50.359Z,-82
2019-02-03T22:47:22.409Z,-81
2019-02-03T22:49:54.280Z,-81
2019-02-03T22:52:26.237Z,-84
2019-02-03T22:54:58.100Z,-83
2019-02-03T22:57:30.144Z,-83
2019-02-03T23:00:02.235Z,-85
2019-02-03T23:02:34.104Z,-83
2019-02-03T23:05:06.828Z,-81
2019-02-03T23:07:38.697Z,-82
2019-02-03T23:10:10.887Z,-82
2019-02-03T23:12:42.733Z,-82
2019-02-03T23:15:14.616Z,-80
2019-02-03T23:17:46.466Z,-79
2019-02-03T23:20:18.538Z,-78
2019-02-03T23:22:50.361Z,-79
2019-02-03T23:25:22.223Z,-79
2019-02-03T23:27:54.055Z,-79
2019-02-03T23:30:25.958Z,-80
2019-02-03T23:32:57.839Z,-80
2019-02-03T23:35:29.826Z,-79
2019-02-03T23:38:01.660Z,-80
2019-02-03T23:40:33.533Z,-80
2019-02-03T23:43:05.377Z,-79
2019-02-03T23:45:37.874Z,-80
2019-02-03T23:48:09.761Z,-79
2019-02-03T23:50:41.855Z,-80
2019-02-03T23:53:13.720Z,-80
2019-02-03T23:55:45.716Z,-79
2019-02-03T23:58:17.610Z,-80
